createdAt,value
2019-04-14T00:00:10.516Z,18.07
2019-04-14T00:01:10.854Z,18.08
2019-04-14T00:02:11.677Z,18.07
2019-04-14T00:03:10.822Z,18.08
2019-04-14T00:04:11.537Z,18.05
2019-04-14T00:05:10.464Z,18.07
2019-04-14T00:06:11.278Z,18.07
2019-04-14T00:07:10.436Z,18.05
2019-04-14T00:08:11.050Z,18.07
2019-04-14T00:09:10.467Z,18.05
2019-04-14T00:10:11.460Z,18.07
2019-04-14T00:11:10.471Z,18.05
2019-04-14T00:12:10.563Z,18.05
2019-04-14T00:13:10.999Z,18.07
2019-04-14T00:14:11.699Z,18.05
2019-04-14T00:15:23.434Z,18.03
2019-04-14T00:16:11.760Z,18.05
2019-04-14T00:17:10.819Z,18.05
2019-04-14T00:18:10.321Z,18.07
2019-04-14T00:19:10.824Z,18.05
2019-04-14T00:20:10.302Z,18.07
2019-04-14T00:21:10.864Z,18.05
2019-04-14T00:22:11.568Z,18.05
2019-04-14T00:23:10.872Z,18.03
2019-04-14T00:24:10.256Z,18.05
2019-04-14T00:25:10.775Z,18.05
2019-04-14T00:26:10.237Z,18.03
2019-04-14T00:27:10.680Z,18.05
2019-04-14T00:28:10.216Z,18.05
2019-04-14T00:29:10.914Z,18.05
2019-04-14T00:30:10.195Z,18.05
2019-04-14T00:31:10.896Z,18.02
2019-04-14T00:32:10.181Z,18.03
2019-04-14T00:33:10.678Z,18.05
2019-04-14T00:34:11.335Z,18.05
2019-04-14T00:35:10.376Z,18.05
2019-04-14T00:36:10.828Z,18.02
2019-04-14T00:37:10.120Z,18.03
2019-04-14T00:38:10.596Z,18.02
2019-04-14T00:39:10.331Z,18.05
2019-04-14T00:40:10.497Z,18.03
2019-04-14T00:41:10.078Z,18.03
2019-04-14T00:42:10.160Z,18.00
2019-04-14T00:43:11.296Z,18.02
2019-04-14T00:44:10.069Z,18.03
2019-04-14T00:45:11.153Z,18.02
2019-04-14T00:46:10.061Z,18.03
2019-04-14T00:47:10.013Z,18.00
2019-04-14T00:48:14.429Z,18.03
2019-04-14T00:49:11.447Z,18.00
2019-04-14T00:50:10.149Z,18.02
2019-04-14T00:51:11.184Z,18.02
2019-04-14T00:52:10.113Z,18.02
2019-04-14T00:53:09.945Z,18.00
2019-04-14T00:54:10.965Z,18.02
2019-04-14T00:55:09.962Z,18.02
2019-04-14T00:56:10.485Z,18.02
2019-04-14T00:57:09.904Z,18.00
2019-04-14T00:58:10.371Z,18.02
2019-04-14T00:59:09.882Z,18.02
2019-04-14T01:00:10.364Z,18.02
2019-04-14T01:01:11.120Z,18.00
2019-04-14T01:02:09.921Z,18.00
2019-04-14T01:03:09.839Z,18.02
2019-04-14T01:04:09.858Z,18.02
2019-04-14T01:05:10.912Z,18.03
2019-04-14T01:06:09.808Z,18.02
2019-04-14T01:07:10.775Z,18.02
2019-04-14T01:08:09.782Z,18.02
2019-04-14T01:09:10.769Z,18.02
2019-04-14T01:10:10.389Z,18.00
2019-04-14T01:11:09.759Z,18.00
2019-04-14T01:12:10.308Z,18.00
2019-04-14T01:13:11.190Z,18.00
2019-04-14T01:14:10.118Z,18.00
2019-04-14T01:15:09.937Z,17.99
2019-04-14T01:16:15.400Z,18.00
2019-04-14T01:17:11.262Z,18.00
2019-04-14T01:18:10.058Z,17.99
2019-04-14T01:19:09.665Z,17.99
2019-04-14T01:20:10.101Z,17.99
2019-04-14T01:21:10.952Z,17.99
2019-04-14T01:22:09.633Z,18.00
2019-04-14T01:23:10.610Z,18.00
2019-04-14T01:24:09.665Z,17.99
2019-04-14T01:25:10.627Z,17.99
2019-04-14T01:26:09.596Z,18.00
2019-04-14T01:27:10.293Z,18.00
2019-04-14T01:28:09.617Z,18.00
2019-04-14T01:29:10.111Z,17.99
2019-04-14T01:30:09.550Z,17.99
2019-04-14T01:31:09.846Z,18.00
2019-04-14T01:32:09.527Z,17.99
2019-04-14T01:33:09.724Z,17.99
2019-04-14T01:34:10.744Z,18.00
2019-04-14T01:35:09.673Z,17.99
2019-04-14T01:36:10.491Z,17.99
2019-04-14T01:37:09.474Z,17.99
2019-04-14T01:38:10.308Z,18.00
2019-04-14T01:39:09.450Z,18.02
2019-04-14T01:40:09.950Z,17.99
2019-04-14T01:41:10.594Z,18.00
2019-04-14T01:42:09.560Z,18.00
2019-04-14T01:43:10.243Z,17.99
2019-04-14T01:44:09.399Z,18.00
2019-04-14T01:45:10.015Z,18.00
2019-04-14T01:46:16.050Z,17.99
2019-04-14T01:47:11.573Z,18.02
2019-04-14T01:48:10.480Z,17.99
2019-04-14T01:49:09.388Z,18.00
2019-04-14T01:50:10.467Z,17.99
2019-04-14T01:51:09.346Z,17.99
2019-04-14T01:52:10.317Z,18.00
2019-04-14T01:53:09.664Z,18.00
2019-04-14T01:54:09.320Z,18.00
2019-04-14T01:55:09.286Z,18.00
2019-04-14T01:56:10.224Z,18.00
2019-04-14T01:57:09.260Z,18.00
2019-04-14T01:58:09.987Z,18.00
2019-04-14T01:59:09.243Z,18.00
2019-04-14T02:00:09.843Z,17.99
2019-04-14T02:01:10.453Z,18.00
2019-04-14T02:02:09.716Z,18.00
2019-04-14T02:03:09.199Z,18.00
2019-04-14T02:04:09.528Z,18.02
2019-04-14T02:05:10.248Z,18.00
2019-04-14T02:06:09.343Z,18.00
2019-04-14T02:07:10.204Z,18.02
2019-04-14T02:08:09.161Z,18.00
2019-04-14T02:09:09.727Z,18.02
2019-04-14T02:10:09.126Z,18.02
2019-04-14T02:11:09.464Z,18.00
2019-04-14T02:12:09.124Z,18.00
2019-04-14T02:13:09.339Z,17.99
2019-04-14T02:14:10.340Z,17.99
2019-04-14T02:15:09.161Z,18.00
2019-04-14T02:16:21.092Z,18.00
2019-04-14T02:17:11.221Z,17.99
2019-04-14T02:18:09.927Z,17.99
2019-04-14T02:19:09.034Z,17.99
2019-04-14T02:20:10.042Z,17.99
2019-04-14T02:21:09.005Z,17.99
2019-04-14T02:22:09.543Z,17.99
2019-04-14T02:23:10.265Z,17.99
2019-04-14T02:24:09.229Z,17.99
2019-04-14T02:25:09.924Z,17.99
2019-04-14T02:26:09.229Z,17.97
2019-04-14T02:27:09.815Z,17.99
2019-04-14T02:28:09.180Z,17.99
2019-04-14T02:29:09.923Z,17.97
2019-04-14T02:30:10.181Z,17.99
2019-04-14T02:31:25.163Z,17.99
2019-04-14T02:32:45.311Z,17.99
2019-04-14T02:35:37.292Z,17.99
2019-04-14T02:36:40.244Z,17.97
2019-04-14T02:37:34.168Z,17.99
2019-04-14T02:38:40.878Z,17.99
2019-04-14T02:39:39.114Z,17.99
2019-04-14T02:40:47.335Z,17.97
2019-04-14T02:41:39.231Z,17.97
2019-04-14T02:43:39.812Z,17.96
2019-04-14T02:44:41.953Z,17.96
2019-04-14T02:45:52.152Z,17.97
2019-04-14T02:46:38.671Z,17.96
2019-04-14T02:48:07.221Z,17.96
2019-04-14T02:48:44.915Z,17.97
2019-04-14T02:49:35.859Z,17.96
2019-04-14T02:50:30.657Z,17.96
2019-04-14T02:51:52.050Z,17.97
2019-04-14T02:52:35.568Z,17.95
2019-04-14T02:54:46.738Z,17.96
2019-04-14T02:56:35.712Z,17.96
2019-04-14T02:57:52.524Z,17.96
2019-04-14T02:58:45.953Z,17.95
2019-04-14T02:59:37.145Z,17.96
2019-04-14T03:01:48.695Z,17.95
2019-04-14T03:02:39.891Z,17.95
2019-04-14T03:03:54.349Z,17.95
2019-04-14T03:04:39.248Z,17.95
2019-04-14T03:05:37.209Z,17.96
2019-04-14T03:06:38.554Z,17.95
2019-04-14T03:07:37.857Z,17.96
2019-04-14T03:08:50.836Z,17.96
2019-04-14T03:09:50.203Z,17.96
2019-04-14T03:10:40.339Z,17.95
2019-04-14T03:11:42.680Z,17.93
2019-04-14T03:13:35.262Z,17.95
2019-04-14T03:14:43.547Z,17.93
2019-04-14T03:16:44.774Z,17.95
2019-04-14T03:17:39.140Z,17.93
2019-04-14T03:19:44.163Z,17.95
2019-04-14T03:20:32.182Z,17.96
2019-04-14T03:21:38.165Z,17.95
2019-04-14T03:22:36.939Z,17.95
2019-04-14T03:23:40.674Z,17.96
2019-04-14T03:24:31.582Z,17.95
2019-04-14T03:25:27.666Z,17.95
2019-04-14T03:26:35.609Z,17.95
2019-04-14T03:27:43.873Z,17.95
2019-04-14T03:28:45.401Z,17.95
2019-04-14T03:29:50.254Z,17.93
2019-04-14T03:31:00.421Z,17.95
2019-04-14T03:34:43.202Z,17.95
2019-04-14T03:36:05.760Z,17.95
2019-04-14T03:37:21.996Z,17.95
2019-04-14T03:37:48.524Z,17.95
2019-04-14T03:38:40.210Z,17.95
2019-04-14T03:40:39.585Z,17.95
2019-04-14T03:43:54.537Z,17.93
2019-04-14T03:44:37.790Z,17.95
2019-04-14T03:45:45.119Z,17.95
2019-04-14T03:46:45.059Z,17.93
2019-04-14T03:47:35.783Z,17.93
2019-04-14T03:48:54.109Z,17.95
2019-04-14T03:49:40.501Z,17.93
2019-04-14T03:50:37.429Z,17.93
2019-04-14T03:51:46.786Z,17.93
2019-04-14T03:52:42.741Z,17.93
2019-04-14T03:53:50.702Z,17.95
2019-04-14T03:54:25.997Z,17.93
2019-04-14T03:55:20.300Z,17.93
2019-04-14T03:56:13.770Z,17.93
2019-04-14T03:57:08.980Z,17.93
2019-04-14T03:58:08.956Z,17.93
2019-04-14T03:59:08.462Z,17.93
2019-04-14T04:00:07.953Z,17.93
2019-04-14T04:01:08.373Z,17.93
2019-04-14T04:02:07.926Z,17.93
2019-04-14T04:03:08.517Z,17.92
2019-04-14T04:04:07.903Z,17.92
2019-04-14T04:05:08.523Z,17.92
2019-04-14T04:06:07.898Z,17.93
2019-04-14T04:07:08.215Z,17.92
2019-04-14T04:08:07.863Z,17.92
2019-04-14T04:09:08.350Z,17.90
2019-04-14T04:10:07.847Z,17.92
2019-04-14T04:11:08.403Z,17.92
2019-04-14T04:12:07.858Z,17.90
2019-04-14T04:13:08.343Z,17.92
2019-04-14T04:14:07.798Z,17.92
2019-04-14T04:15:08.394Z,17.93
2019-04-14T04:16:07.780Z,17.93
2019-04-14T04:17:08.012Z,17.90
2019-04-14T04:18:07.754Z,17.92
2019-04-14T04:19:12.993Z,17.92
2019-04-14T04:20:09.019Z,17.92
2019-04-14T04:21:07.722Z,17.92
2019-04-14T04:22:08.528Z,17.92
2019-04-14T04:23:07.759Z,17.92
2019-04-14T04:24:08.590Z,17.92
2019-04-14T04:25:07.731Z,17.90
2019-04-14T04:26:08.238Z,17.90
2019-04-14T04:27:08.901Z,17.90
2019-04-14T04:28:08.048Z,17.90
2019-04-14T04:29:07.643Z,17.90
2019-04-14T04:30:08.095Z,17.90
2019-04-14T04:31:08.817Z,17.90
2019-04-14T04:32:07.867Z,17.89
2019-04-14T04:33:08.646Z,17.90
2019-04-14T04:34:07.686Z,17.90
2019-04-14T04:35:08.558Z,17.89
2019-04-14T04:36:07.584Z,17.89
2019-04-14T04:37:08.316Z,17.89
2019-04-14T04:38:07.543Z,17.90
2019-04-14T04:39:08.283Z,17.90
2019-04-14T04:40:07.527Z,17.89
2019-04-14T04:41:08.036Z,17.89
2019-04-14T04:42:07.508Z,17.89
2019-04-14T04:43:07.942Z,17.89
2019-04-14T04:44:07.484Z,17.89
2019-04-14T04:45:08.147Z,17.89
2019-04-14T04:46:07.458Z,17.89
2019-04-14T04:47:07.749Z,17.87
2019-04-14T04:48:08.781Z,17.89
2019-04-14T04:49:14.479Z,17.90
2019-04-14T04:50:08.625Z,17.89
2019-04-14T04:51:07.406Z,17.89
2019-04-14T04:52:10.840Z,17.89
2019-04-14T04:53:07.381Z,17.89
2019-04-14T04:54:08.174Z,17.89
2019-04-14T04:55:07.364Z,17.89
2019-04-14T04:56:08.018Z,17.89
2019-04-14T04:57:07.347Z,17.89
2019-04-14T04:58:07.796Z,17.89
2019-04-14T04:59:07.555Z,17.89
2019-04-14T05:00:07.347Z,17.87
2019-04-14T05:01:07.710Z,17.87
2019-04-14T05:02:07.286Z,17.89
2019-04-14T05:03:07.934Z,17.89
2019-04-14T05:04:07.267Z,17.90
2019-04-14T05:05:07.720Z,17.89
2019-04-14T05:06:07.247Z,17.89
2019-04-14T05:07:07.855Z,17.89
2019-04-14T05:08:07.228Z,17.87
2019-04-14T05:09:07.928Z,17.89
2019-04-14T05:10:07.204Z,17.89
2019-04-14T05:11:07.567Z,17.87
2019-04-14T05:12:07.183Z,17.87
2019-04-14T05:13:07.331Z,17.87
2019-04-14T05:14:07.199Z,17.89
2019-04-14T05:15:07.347Z,17.87
2019-04-14T05:16:07.138Z,17.89
2019-04-14T05:17:07.924Z,17.87
2019-04-14T05:18:07.173Z,17.89
2019-04-14T05:19:17.185Z,17.89
2019-04-14T05:20:09.428Z,17.89
2019-04-14T05:21:08.179Z,17.89
2019-04-14T05:22:07.101Z,17.87
2019-04-14T05:23:08.054Z,17.89
2019-04-14T05:24:07.147Z,17.87
2019-04-14T05:25:07.979Z,17.87
2019-04-14T05:26:07.169Z,17.89
2019-04-14T05:27:07.849Z,17.89
2019-04-14T05:28:07.030Z,17.87
2019-04-14T05:29:07.786Z,17.89
2019-04-14T05:30:06.992Z,17.87
2019-04-14T05:31:07.617Z,17.89
2019-04-14T05:32:06.991Z,17.87
2019-04-14T05:33:07.456Z,17.87
2019-04-14T05:34:06.950Z,17.90
2019-04-14T05:35:07.419Z,17.87
2019-04-14T05:36:06.942Z,17.87
2019-04-14T05:37:07.233Z,17.87
2019-04-14T05:38:06.904Z,17.87
2019-04-14T05:39:06.935Z,17.87
2019-04-14T05:40:07.988Z,17.87
2019-04-14T05:41:07.067Z,17.87
2019-04-14T05:42:13.216Z,17.86
2019-04-14T05:43:08.888Z,17.87
2019-04-14T05:44:07.820Z,17.87
2019-04-14T05:45:06.876Z,17.87
2019-04-14T05:46:07.742Z,17.87
2019-04-14T05:47:06.808Z,17.87
2019-04-14T05:48:07.465Z,17.86
2019-04-14T05:49:06.785Z,17.87
2019-04-14T05:50:07.328Z,17.86
2019-04-14T05:51:06.766Z,17.87
2019-04-14T05:52:07.748Z,17.87
2019-04-14T05:53:06.744Z,17.87
2019-04-14T05:54:07.824Z,17.86
2019-04-14T05:55:06.752Z,17.86
2019-04-14T05:56:07.790Z,17.86
2019-04-14T05:57:06.703Z,17.86
2019-04-14T05:58:07.809Z,17.87
2019-04-14T05:59:06.786Z,17.86
2019-04-14T06:00:06.672Z,17.86
2019-04-14T06:01:06.962Z,17.86
2019-04-14T06:02:07.272Z,17.87
2019-04-14T06:03:06.637Z,17.87
2019-04-14T06:04:07.080Z,17.84
2019-04-14T06:05:08.810Z,17.87
2019-04-14T06:06:06.611Z,17.86
2019-04-14T06:07:06.597Z,17.86
2019-04-14T06:08:06.630Z,17.86
2019-04-14T06:09:06.572Z,17.86
2019-04-14T06:10:06.568Z,17.84
2019-04-14T06:11:06.556Z,17.84
2019-04-14T06:12:06.544Z,17.84
2019-04-14T06:13:06.569Z,17.86
2019-04-14T06:14:06.521Z,17.84
2019-04-14T06:15:06.523Z,17.84
2019-04-14T06:16:06.500Z,17.86
2019-04-14T06:17:06.493Z,17.84
2019-04-14T06:18:06.505Z,17.84
2019-04-14T06:19:06.730Z,17.84
2019-04-14T06:20:06.454Z,17.86
2019-04-14T06:21:06.453Z,17.84
2019-04-14T06:22:06.437Z,17.86
2019-04-14T06:23:06.428Z,17.86
2019-04-14T06:24:06.417Z,17.84
2019-04-14T06:25:06.441Z,17.84
2019-04-14T06:26:06.393Z,17.84
2019-04-14T06:27:06.381Z,17.86
2019-04-14T06:28:06.393Z,17.84
2019-04-14T06:29:06.358Z,17.84
2019-04-14T06:30:06.353Z,17.84
2019-04-14T06:31:08.880Z,17.84
2019-04-14T06:32:06.379Z,17.84
2019-04-14T06:33:06.320Z,17.82
2019-04-14T06:34:06.313Z,17.84
2019-04-14T06:35:06.301Z,17.82
2019-04-14T06:36:06.287Z,17.84
2019-04-14T06:37:06.309Z,17.84
2019-04-14T06:38:06.300Z,17.84
2019-04-14T06:39:06.259Z,17.82
2019-04-14T06:40:06.243Z,17.84
2019-04-14T06:41:06.246Z,17.82
2019-04-14T06:42:06.222Z,17.82
2019-04-14T06:43:06.450Z,17.82
2019-04-14T06:44:06.198Z,17.84
2019-04-14T06:45:06.192Z,17.84
2019-04-14T06:46:06.178Z,17.82
2019-04-14T06:47:06.167Z,17.84
2019-04-14T06:48:06.162Z,17.84
2019-04-14T06:49:06.185Z,17.84
2019-04-14T06:50:06.139Z,17.84
2019-04-14T06:51:06.138Z,17.86
2019-04-14T06:52:06.119Z,17.84
2019-04-14T06:53:06.105Z,17.84
2019-04-14T06:54:06.123Z,17.84
2019-04-14T06:55:06.118Z,17.84
2019-04-14T06:56:06.077Z,17.84
2019-04-14T06:57:06.063Z,17.84
2019-04-14T06:58:06.051Z,17.82
2019-04-14T06:59:06.045Z,17.84
2019-04-14T07:00:06.125Z,17.86
2019-04-14T07:01:06.045Z,17.86
2019-04-14T07:02:08.571Z,17.84
2019-04-14T07:03:05.999Z,17.84
2019-04-14T07:04:05.990Z,17.86
2019-04-14T07:05:06.016Z,17.84
2019-04-14T07:06:05.965Z,17.84
2019-04-14T07:07:05.955Z,17.86
2019-04-14T07:08:05.941Z,17.86
2019-04-14T07:09:05.933Z,17.84
2019-04-14T07:10:05.964Z,17.86
2019-04-14T07:11:05.909Z,17.86
2019-04-14T07:12:06.015Z,17.87
2019-04-14T07:13:05.893Z,17.84
2019-04-14T07:14:05.900Z,17.86
2019-04-14T07:15:05.866Z,17.84
2019-04-14T07:16:05.890Z,17.86
2019-04-14T07:17:05.852Z,17.86
2019-04-14T07:18:05.841Z,17.86
2019-04-14T07:19:05.831Z,17.86
2019-04-14T07:20:05.814Z,17.86
2019-04-14T07:21:05.809Z,17.86
2019-04-14T07:22:05.828Z,17.87
2019-04-14T07:23:05.789Z,17.86
2019-04-14T07:24:06.007Z,17.86
2019-04-14T07:25:05.820Z,17.84
2019-04-14T07:26:05.756Z,17.86
2019-04-14T07:27:05.742Z,17.86
2019-04-14T07:28:05.730Z,17.86
2019-04-14T07:29:05.727Z,17.86
2019-04-14T07:30:05.747Z,17.86
2019-04-14T07:31:05.698Z,17.86
2019-04-14T07:32:05.687Z,17.86
2019-04-14T07:33:05.677Z,17.86
2019-04-14T07:34:05.664Z,17.86
2019-04-14T07:35:05.707Z,17.86
2019-04-14T07:36:05.646Z,17.87
2019-04-14T07:37:05.646Z,17.86
2019-04-14T07:38:05.624Z,17.86
2019-04-14T07:39:05.679Z,17.86
2019-04-14T07:40:05.611Z,17.86
2019-04-14T07:41:05.620Z,17.86
2019-04-14T07:42:05.583Z,17.84
2019-04-14T07:43:05.802Z,17.86
2019-04-14T07:44:05.556Z,17.84
2019-04-14T07:45:05.551Z,17.87
2019-04-14T07:46:05.540Z,17.87
2019-04-14T07:47:05.542Z,17.87
2019-04-14T07:48:05.521Z,17.86
2019-04-14T07:49:05.535Z,17.86
2019-04-14T07:50:14.551Z,17.86
2019-04-14T07:51:06.488Z,17.86
2019-04-14T07:52:05.523Z,17.86
2019-04-14T07:53:05.460Z,17.86
2019-04-14T07:54:05.454Z,17.86
2019-04-14T07:55:05.445Z,17.87
2019-04-14T07:56:05.429Z,17.86
2019-04-14T07:57:05.422Z,17.86
2019-04-14T07:58:05.449Z,17.84
2019-04-14T07:59:05.402Z,17.84
2019-04-14T08:00:05.399Z,17.86
2019-04-14T08:01:05.391Z,17.84
2019-04-14T08:02:05.367Z,17.86
2019-04-14T08:03:05.357Z,17.84
2019-04-14T08:04:05.392Z,17.84
2019-04-14T08:05:05.337Z,17.84
2019-04-14T08:06:05.337Z,17.84
2019-04-14T08:07:05.310Z,17.86
2019-04-14T08:08:05.309Z,17.86
2019-04-14T08:09:05.294Z,17.86
2019-04-14T08:10:05.316Z,17.84
2019-04-14T08:11:05.273Z,17.84
2019-04-14T08:12:05.261Z,17.86
2019-04-14T08:13:05.249Z,17.86
2019-04-14T08:14:05.237Z,17.84
2019-04-14T08:15:05.263Z,17.86
2019-04-14T08:16:05.220Z,17.87
2019-04-14T08:17:05.204Z,17.86
2019-04-14T08:18:05.200Z,17.84
2019-04-14T08:19:05.194Z,17.86
2019-04-14T08:20:05.409Z,17.84
2019-04-14T08:21:05.167Z,17.86
2019-04-14T08:22:05.157Z,17.84
2019-04-14T08:23:05.147Z,17.86
2019-04-14T08:24:05.130Z,17.86
2019-04-14T08:25:05.124Z,17.86
2019-04-14T08:26:05.142Z,17.86
2019-04-14T08:27:05.106Z,17.87
2019-04-14T08:28:05.095Z,17.86
2019-04-14T08:29:05.304Z,17.87
2019-04-14T08:30:05.068Z,17.87
2019-04-14T08:31:05.055Z,17.86
2019-04-14T08:32:05.052Z,17.86
2019-04-14T08:33:05.044Z,17.87
2019-04-14T08:34:05.023Z,17.87
2019-04-14T08:35:05.241Z,17.87
2019-04-14T08:36:05.004Z,17.87
2019-04-14T08:37:04.995Z,17.87
2019-04-14T08:38:04.984Z,17.87
2019-04-14T08:39:04.974Z,17.86
2019-04-14T08:40:04.965Z,17.87
2019-04-14T08:41:04.981Z,17.87
2019-04-14T08:42:04.943Z,17.87
2019-04-14T08:43:04.935Z,17.87
2019-04-14T08:44:04.962Z,17.86
2019-04-14T08:45:04.906Z,17.86
2019-04-14T08:46:04.903Z,17.87
2019-04-14T08:47:04.887Z,17.87
2019-04-14T08:48:04.877Z,17.87
2019-04-14T08:49:04.868Z,17.86
2019-04-14T08:50:04.892Z,17.89
2019-04-14T08:51:04.848Z,17.86
2019-04-14T08:52:04.836Z,17.87
2019-04-14T08:53:04.840Z,17.87
2019-04-14T08:54:04.869Z,17.87
2019-04-14T08:55:04.801Z,17.89
2019-04-14T08:56:04.793Z,17.89
2019-04-14T08:57:04.785Z,17.89
2019-04-14T08:58:04.767Z,17.89
2019-04-14T08:59:04.762Z,17.89
2019-04-14T09:00:04.780Z,17.87
2019-04-14T09:01:04.737Z,17.87
2019-04-14T09:02:04.725Z,17.86
2019-04-14T09:03:04.728Z,17.87
2019-04-14T09:04:04.742Z,17.87
2019-04-14T09:05:04.693Z,17.86
2019-04-14T09:06:04.699Z,17.86
2019-04-14T09:07:04.704Z,17.87
2019-04-14T09:08:04.667Z,17.86
2019-04-14T09:09:07.237Z,17.86
2019-04-14T09:10:04.672Z,17.86
2019-04-14T09:11:04.634Z,17.86
2019-04-14T09:12:14.882Z,17.87
2019-04-14T09:13:05.614Z,17.87
2019-04-14T09:14:04.599Z,17.84
2019-04-14T09:15:04.621Z,17.86
2019-04-14T09:16:04.598Z,17.86
2019-04-14T09:17:04.568Z,17.86
2019-04-14T09:18:04.591Z,17.86
2019-04-14T09:19:07.838Z,17.86
2019-04-14T09:20:04.548Z,17.86
2019-04-14T09:21:04.522Z,17.87
2019-04-14T09:22:04.610Z,17.86
2019-04-14T09:23:04.507Z,17.87
2019-04-14T09:24:04.495Z,17.87
2019-04-14T09:25:04.484Z,17.86
2019-04-14T09:26:04.473Z,17.87
2019-04-14T09:27:04.460Z,17.87
2019-04-14T09:28:04.500Z,17.86
2019-04-14T09:29:04.453Z,17.84
2019-04-14T09:30:04.434Z,17.84
2019-04-14T09:31:04.419Z,17.86
2019-04-14T09:32:04.412Z,17.84
2019-04-14T09:33:04.400Z,17.84
2019-04-14T09:34:04.418Z,17.82
2019-04-14T09:35:04.376Z,17.82
2019-04-14T09:36:04.364Z,17.84
2019-04-14T09:37:04.358Z,17.84
2019-04-14T09:38:04.346Z,17.82
2019-04-14T09:39:04.375Z,17.84
2019-04-14T09:40:04.324Z,17.81
2019-04-14T09:41:04.316Z,17.81
2019-04-14T09:42:04.303Z,17.82
2019-04-14T09:43:04.294Z,17.81
2019-04-14T09:44:04.281Z,17.81
2019-04-14T09:45:04.303Z,17.81
2019-04-14T09:46:04.259Z,17.81
2019-04-14T09:47:04.252Z,17.79
2019-04-14T09:48:04.242Z,17.79
2019-04-14T09:49:04.228Z,17.79
2019-04-14T09:50:04.222Z,17.81
2019-04-14T09:51:05.319Z,17.79
2019-04-14T09:52:04.196Z,17.81
2019-04-14T09:53:04.187Z,17.79
2019-04-14T09:54:04.175Z,17.81
2019-04-14T09:55:04.208Z,17.81
2019-04-14T09:56:04.156Z,17.79
2019-04-14T09:57:04.144Z,17.79
2019-04-14T09:58:04.134Z,17.79
2019-04-14T09:59:04.124Z,17.78
2019-04-14T10:00:04.114Z,17.79
2019-04-14T10:01:04.140Z,17.79
2019-04-14T10:02:04.103Z,17.79
2019-04-14T10:03:04.077Z,17.81
2019-04-14T10:04:04.071Z,17.79
2019-04-14T10:05:04.055Z,17.79
2019-04-14T10:06:04.050Z,17.79
2019-04-14T10:07:04.258Z,17.79
2019-04-14T10:08:04.021Z,17.79
2019-04-14T10:09:04.018Z,17.79
2019-04-14T10:10:04.003Z,17.79
2019-04-14T10:11:03.989Z,17.79
2019-04-14T10:12:04.015Z,17.79
2019-04-14T10:13:04.014Z,17.79
2019-04-14T10:14:03.957Z,17.79
2019-04-14T10:15:03.951Z,17.78
2019-04-14T10:16:03.941Z,17.78
2019-04-14T10:17:03.932Z,17.78
2019-04-14T10:18:03.919Z,17.78
2019-04-14T10:19:03.939Z,17.78
2019-04-14T10:20:03.899Z,17.79
2019-04-14T10:21:16.503Z,17.78
2019-04-14T10:22:04.875Z,17.79
2019-04-14T10:23:03.866Z,17.79
2019-04-14T10:24:03.887Z,17.81
2019-04-14T10:25:03.841Z,17.81
2019-04-14T10:26:03.863Z,17.79
2019-04-14T10:27:03.826Z,17.81
2019-04-14T10:28:03.811Z,17.79
2019-04-14T10:29:03.798Z,17.81
2019-04-14T10:30:03.823Z,17.77
2019-04-14T10:31:03.819Z,17.78
2019-04-14T10:32:03.772Z,17.79
2019-04-14T10:33:03.755Z,17.79
2019-04-14T10:34:03.747Z,17.79
2019-04-14T10:35:03.745Z,17.79
2019-04-14T10:36:03.728Z,17.79
2019-04-14T10:37:03.766Z,17.79
2019-04-14T10:38:03.706Z,17.78
2019-04-14T10:39:03.692Z,17.79
2019-04-14T10:40:06.073Z,17.79
2019-04-14T10:41:03.678Z,17.81
2019-04-14T10:42:03.668Z,17.81
2019-04-14T10:43:03.685Z,17.79
2019-04-14T10:44:03.646Z,17.81
2019-04-14T10:45:03.632Z,17.81
2019-04-14T10:46:03.626Z,17.79
2019-04-14T10:47:03.613Z,17.79
2019-04-14T10:48:03.596Z,17.81
2019-04-14T10:49:03.621Z,17.79
2019-04-14T10:50:03.574Z,17.78
2019-04-14T10:51:03.609Z,17.78
2019-04-14T10:52:03.556Z,17.79
2019-04-14T10:53:03.542Z,17.77
2019-04-14T10:54:03.538Z,17.79
2019-04-14T10:55:03.527Z,17.79
2019-04-14T10:56:03.516Z,17.78
2019-04-14T10:57:03.538Z,17.78
2019-04-14T10:58:03.519Z,17.78
2019-04-14T10:59:03.479Z,17.78
2019-04-14T11:00:03.468Z,17.77
2019-04-14T11:01:03.461Z,17.77
2019-04-14T11:02:03.488Z,17.78
2019-04-14T11:03:03.441Z,17.77
2019-04-14T11:04:03.427Z,17.79
2019-04-14T11:05:03.414Z,17.77
2019-04-14T11:06:03.418Z,17.77
2019-04-14T11:07:03.431Z,17.77
2019-04-14T11:08:03.407Z,17.78
2019-04-14T11:09:03.376Z,17.78
2019-04-14T11:10:03.365Z,17.78
2019-04-14T11:11:03.350Z,17.77
2019-04-14T11:12:03.344Z,17.78
2019-04-14T11:13:03.367Z,17.77
2019-04-14T11:14:03.328Z,17.77
2019-04-14T11:15:03.313Z,17.78
2019-04-14T11:16:03.333Z,17.77
2019-04-14T11:17:03.302Z,17.75
2019-04-14T11:18:03.286Z,17.77
2019-04-14T11:19:03.265Z,17.77
2019-04-14T11:20:03.257Z,17.77
2019-04-14T11:21:03.257Z,17.78
2019-04-14T11:22:03.266Z,17.78
2019-04-14T11:23:03.840Z,17.77
2019-04-14T11:24:03.218Z,17.78
2019-04-14T11:25:03.206Z,17.75
2019-04-14T11:26:03.196Z,17.77
2019-04-14T11:27:03.417Z,17.77
2019-04-14T11:28:03.181Z,17.77
2019-04-14T11:29:03.163Z,17.78
2019-04-14T11:30:03.149Z,17.78
2019-04-14T11:31:03.145Z,17.77
2019-04-14T11:32:03.136Z,17.78
2019-04-14T11:33:03.157Z,17.78
2019-04-14T11:34:03.110Z,17.78
2019-04-14T11:35:03.102Z,17.78
2019-04-14T11:36:03.087Z,17.78
2019-04-14T11:37:03.084Z,17.79
2019-04-14T11:38:03.100Z,17.77
2019-04-14T11:39:03.063Z,17.77
2019-04-14T11:40:03.044Z,17.79
2019-04-14T11:41:03.068Z,17.75
2019-04-14T11:42:03.039Z,17.77
2019-04-14T11:43:03.057Z,17.77
2019-04-14T11:44:03.001Z,17.75
2019-04-14T11:45:03.044Z,17.77
2019-04-14T11:46:03.986Z,17.77
2019-04-14T11:47:02.975Z,17.77
2019-04-14T11:48:02.959Z,17.77
2019-04-14T11:49:02.945Z,17.77
2019-04-14T11:50:02.938Z,17.75
2019-04-14T11:51:02.975Z,17.77
2019-04-14T11:52:02.921Z,17.77
2019-04-14T11:53:02.910Z,17.77
2019-04-14T11:54:02.906Z,17.77
2019-04-14T11:55:02.891Z,17.77
2019-04-14T11:56:02.909Z,17.77
2019-04-14T11:57:02.868Z,17.77
2019-04-14T11:58:02.854Z,17.78
2019-04-14T11:59:02.844Z,17.78
2019-04-14T12:00:02.840Z,17.78
2019-04-14T12:01:02.915Z,17.77
2019-04-14T12:02:02.814Z,17.78
2019-04-14T12:03:02.801Z,17.77
2019-04-14T12:04:02.798Z,17.77
2019-04-14T12:05:02.782Z,17.77
2019-04-14T12:06:02.766Z,17.78
2019-04-14T12:07:02.791Z,17.77
2019-04-14T12:08:02.750Z,17.78
2019-04-14T12:09:02.732Z,17.78
2019-04-14T12:10:02.721Z,17.78
2019-04-14T12:11:02.715Z,17.77
2019-04-14T12:12:02.744Z,17.75
2019-04-14T12:13:02.693Z,17.75
2019-04-14T12:14:02.679Z,17.77
2019-04-14T12:15:02.674Z,17.78
2019-04-14T12:16:02.670Z,17.77
2019-04-14T12:17:02.649Z,17.77
2019-04-14T12:18:02.671Z,17.78
2019-04-14T12:19:02.631Z,17.78
2019-04-14T12:20:02.624Z,17.79
2019-04-14T12:21:02.611Z,17.79
2019-04-14T12:22:08.531Z,17.77
2019-04-14T12:23:03.615Z,17.78
2019-04-14T12:24:02.572Z,17.77
2019-04-14T12:25:02.562Z,17.77
2019-04-14T12:26:05.658Z,17.75
2019-04-14T12:27:02.567Z,17.75
2019-04-14T12:28:02.592Z,17.77
2019-04-14T12:29:03.590Z,17.78
2019-04-14T12:30:03.539Z,17.79
2019-04-14T12:31:02.500Z,17.79
2019-04-14T12:32:02.492Z,17.78
2019-04-14T12:33:02.482Z,17.77
2019-04-14T12:34:02.623Z,17.77
2019-04-14T12:35:02.461Z,17.78
2019-04-14T12:36:02.447Z,17.77
2019-04-14T12:37:02.464Z,17.77
2019-04-14T12:38:02.426Z,17.77
2019-04-14T12:39:02.411Z,17.77
2019-04-14T12:40:02.771Z,17.77
2019-04-14T12:41:03.028Z,17.75
2019-04-14T12:42:02.382Z,17.77
2019-04-14T12:43:02.370Z,17.77
2019-04-14T12:44:02.368Z,17.77
2019-04-14T12:45:02.353Z,17.77
2019-04-14T12:46:02.371Z,17.78
2019-04-14T12:47:02.329Z,17.78
2019-04-14T12:48:02.321Z,17.75
2019-04-14T12:49:02.305Z,17.78
2019-04-14T12:50:02.306Z,17.78
2019-04-14T12:51:02.321Z,17.79
2019-04-14T12:52:02.280Z,17.78
2019-04-14T12:53:02.264Z,17.79
2019-04-14T12:54:02.254Z,17.79
2019-04-14T12:55:02.249Z,17.79
2019-04-14T12:56:02.453Z,17.81
2019-04-14T12:57:02.220Z,17.81
2019-04-14T12:58:02.214Z,17.81
2019-04-14T12:59:02.198Z,17.81
2019-04-14T13:00:02.204Z,17.84
2019-04-14T13:01:02.179Z,17.81
2019-04-14T13:02:02.220Z,17.84
2019-04-14T13:03:02.156Z,17.84
2019-04-14T13:04:02.150Z,17.86
2019-04-14T13:05:02.138Z,17.84
2019-04-14T13:06:02.129Z,17.86
2019-04-14T13:07:02.118Z,17.86